This is the latest recevied weather packets stored in our database for station/object KC4JES. If no packets are shown the sender has not sent any weather packets the latest 1 day(s).
| Time | Temp. | Humidity | Pressure | Rain* | Wind** | Luminosity | Snow |
|---|---|---|---|---|---|---|---|
| 1778096556 | 30° C | 63% | 1016.4 hPa | 0 mm | - | 680 W/m² | - |
| 1778096254 | 30° C | 64% | 1016.2 hPa | 0 mm | - | 760 W/m² | - |
| 1778095647 | 30° C | 63% | 1016.6 hPa | 0 mm | - | 741 W/m² | - |
| 1778095344 | 30° C | 64% | 1016.6 hPa | 0 mm | - | 770 W/m² | - |
| 1778093222 | 30.56° C | 60% | 1016.9 hPa | 0 mm | - | 907 W/m² | - |
| 1778092919 | 30.56° C | 60% | 1016.9 hPa | 0 mm | - | 884 W/m² | - |
| 1778092009 | 30.56° C | 64% | 1017.1 hPa | 0 mm | - | 952 W/m² | - |
| 1778091706 | 30.56° C | 60% | 1016.9 hPa | 0 mm | - | 839 W/m² | - |
| 1778091404 | 30.56° C | 61% | 1017 hPa | 0 mm | - | 920 W/m² | - |
| 1778089282 | 30.56° C | 59% | 1017.4 hPa | 0 mm | - | 769 W/m² | - |
| 1778088676 | 30° C | 62% | 1017.6 hPa | 0 mm | - | 720 W/m² | - |
| 1778085951 | 31.11° C | 50% | 1017.9 hPa | 0 mm | - | 190 W/m² | - |
| 1778085648 | 30.56° C | 55% | 1018.2 hPa | 0 mm | - | 194 W/m² | - |
| 1778081812 | 28.89° C | 56% | 1018.2 hPa | 0 mm | - | 90 W/m² | - |
| 1778081206 | 28.33° C | 61% | 1018.3 hPa | 0 mm | - | 81 W/m² | - |
| 1778079086 | 27.78° C | 61% | 1018.2 hPa | 0 mm | - | 88 W/m² | - |
| 1778078480 | 27.22° C | 64% | 1018 hPa | 0 mm | - | 94 W/m² | - |
| 1778078178 | 27.22° C | 62% | 1018.1 hPa | 0 mm | - | 98 W/m² | - |
| 1778077272 | 26.67° C | 67% | 1018.1 hPa | 0 mm | - | 74 W/m² | - |
| 1778073029 | 23.89° C | 77% | 1018.1 hPa | 0 mm | - | 72 W/m² | - |
| 1778072726 | 23.33° C | 77% | 1017.9 hPa | 0 mm | - | 55 W/m² | - |
| 1778071819 | 22.78° C | 78% | 1017.8 hPa | 0 mm | - | 58 W/m² | - |
| 1778070610 | 21.67° C | 82% | 1017.6 hPa | 0 mm | - | 49 W/m² | - |
| 1778069398 | 20° C | 87% | 1017.6 hPa | 0 mm | - | 35 W/m² | - |
| 1778069096 | 20° C | 89% | 1017.6 hPa | 0 mm | - | 40 W/m² | - |
* Rain latest hour (hover to see other rain measurements)
** Current wind speed in m/s (hover to see current wind gust speed)